createdAt,value
2022-12-18T00:02:00.054Z,65.43
2022-12-18T00:04:47.405Z,78.28
2022-12-18T00:07:33.021Z,72.57
2022-12-18T00:10:18.991Z,72.45
2022-12-18T00:13:08.221Z,84.03
2022-12-18T00:15:56.664Z,65.20
2022-12-18T00:18:43.674Z,98.25
2022-12-18T00:21:31.447Z,110.50
2022-12-18T00:24:17.023Z,59.72
2022-12-18T00:27:03.344Z,90.53
2022-12-18T00:29:50.135Z,76.50
2022-12-18T00:32:35.747Z,86.10
2022-12-18T00:35:22.403Z,72.00
2022-12-18T00:38:08.092Z,69.32
2022-12-18T00:40:54.241Z,74.82
2022-12-18T00:43:41.403Z,77.68
2022-12-18T00:46:28.327Z,93.68
2022-12-18T00:49:16.408Z,99.88
2022-12-18T00:52:02.365Z,112.80
2022-12-18T00:54:48.639Z,87.88
2022-12-18T00:57:34.461Z,86.70
2022-12-18T01:00:20.011Z,91.10
2022-12-18T01:03:07.502Z,111.38
2022-12-18T01:05:53.634Z,119.65
2022-12-18T01:08:40.440Z,79.03
2022-12-18T01:11:26.087Z,105.65
2022-12-18T01:14:11.748Z,94.25
2022-12-18T01:16:58.269Z,131.63
2022-12-18T01:19:43.843Z,102.68
2022-12-18T01:22:29.603Z,106.35
2022-12-18T01:25:15.367Z,146.27
2022-12-18T01:28:02.821Z,127.67
2022-12-18T01:30:48.767Z,181.63
2022-12-18T01:33:35.000Z,87.05
2022-12-18T01:36:30.171Z,164.77
2022-12-18T01:39:16.264Z,122.22
2022-12-18T01:42:04.707Z,157.73
2022-12-18T01:45:13.563Z,163.07
2022-12-18T01:48:02.507Z,112.60
2022-12-18T01:50:48.224Z,167.70
2022-12-18T01:53:35.238Z,177.75
2022-12-18T01:56:22.119Z,162.95
2022-12-18T01:59:12.452Z,113.72
2022-12-18T02:01:58.941Z,188.73
2022-12-18T02:04:49.339Z,112.60
2022-12-18T02:07:41.781Z,174.18
2022-12-18T02:10:42.788Z,136.02
2022-12-18T02:13:47.040Z,122.28
2022-12-18T02:16:38.478Z,137.63
2022-12-18T02:19:58.705Z,138.98
2022-12-18T02:23:03.401Z,93.22
2022-12-18T02:26:26.840Z,90.50
2022-12-18T02:33:46.700Z,104.60
2022-12-18T02:36:34.930Z,96.30
2022-12-18T02:39:23.389Z,110.15
2022-12-18T02:42:23.508Z,89.78
2022-12-18T02:45:09.983Z,110.90
2022-12-18T02:47:56.968Z,113.82
2022-12-18T02:51:15.860Z,111.63
2022-12-18T02:54:15.083Z,71.88
2022-12-18T02:57:15.878Z,82.78
2022-12-18T03:00:31.652Z,88.37
2022-12-18T03:03:26.624Z,62.67
2022-12-18T03:06:38.063Z,69.50
2022-12-18T03:09:39.683Z,71.43
2022-12-18T03:12:37.974Z,60.22
2022-12-18T03:15:39.730Z,65.53
2022-12-18T03:18:43.853Z,55.22
2022-12-18T03:21:38.107Z,63.30
2022-12-18T03:24:27.421Z,70.47
2022-12-18T03:27:16.600Z,72.82
2022-12-18T03:30:09.613Z,91.18
2022-12-18T03:33:18.704Z,74.32
2022-12-18T03:36:05.772Z,82.35
2022-12-18T03:38:53.163Z,80.22
2022-12-18T03:41:59.360Z,78.45
2022-12-18T03:45:04.943Z,69.93
2022-12-18T03:48:00.564Z,63.90
2022-12-18T03:50:57.915Z,56.17
2022-12-18T03:54:03.048Z,53.70
2022-12-18T03:56:59.824Z,57.25
2022-12-18T03:59:48.431Z,80.70
2022-12-18T04:02:41.055Z,90.47
2022-12-18T04:05:29.783Z,70.93
2022-12-18T04:08:18.148Z,58.35
2022-12-18T04:11:13.664Z,74.90
2022-12-18T04:14:01.957Z,72.70
2022-12-18T04:16:51.754Z,62.00
2022-12-18T04:19:43.167Z,69.22
2022-12-18T04:22:30.175Z,105.95
2022-12-18T04:25:19.616Z,104.50
2022-12-18T04:28:15.706Z,93.88
2022-12-18T04:31:01.727Z,67.60
2022-12-18T04:33:48.004Z,97.45
2022-12-18T04:36:34.412Z,86.80
2022-12-18T04:39:20.500Z,88.93
2022-12-18T04:42:09.644Z,81.43
2022-12-18T04:44:55.949Z,110.85
2022-12-18T04:47:41.739Z,99.63
2022-12-18T04:50:27.873Z,84.25
2022-12-18T04:53:13.535Z,75.40
2022-12-18T04:56:11.446Z,161.85
2022-12-18T04:58:57.523Z,83.50
2022-12-18T05:01:43.747Z,70.88
2022-12-18T05:04:30.859Z,86.55
2022-12-18T05:07:16.806Z,73.72
2022-12-18T05:10:02.332Z,92.75
2022-12-18T05:13:01.532Z,67.43
2022-12-18T05:15:53.942Z,99.88
2022-12-18T05:18:39.841Z,59.47
2022-12-18T05:21:25.369Z,78.78
2022-12-18T05:24:11.423Z,98.32
2022-12-18T05:26:57.932Z,65.38
2022-12-18T05:29:43.876Z,57.13
2022-12-18T05:32:29.172Z,59.67
2022-12-18T05:35:14.772Z,57.65
2022-12-18T05:38:00.790Z,88.45
2022-12-18T05:40:48.466Z,50.75
2022-12-18T05:43:40.495Z,71.38
2022-12-18T05:46:26.481Z,68.43
2022-12-18T05:49:12.562Z,97.72
2022-12-18T05:51:58.531Z,46.88
2022-12-18T05:54:44.705Z,74.10
2022-12-18T05:57:30.688Z,57.90
2022-12-18T06:00:16.786Z,61.88
2022-12-18T06:03:03.212Z,66.80
2022-12-18T06:05:49.750Z,57.65
2022-12-18T06:08:35.768Z,63.75
2022-12-18T06:11:25.419Z,58.65
2022-12-18T06:14:12.003Z,65.18
2022-12-18T06:16:57.406Z,73.47
2022-12-18T06:19:43.396Z,69.22
2022-12-18T06:22:29.067Z,78.80
2022-12-18T06:25:14.782Z,60.58
2022-12-18T06:28:00.669Z,65.63
2022-12-18T06:30:49.274Z,62.33
2022-12-18T06:33:35.191Z,70.15
2022-12-18T06:36:21.860Z,53.83
2022-12-18T06:39:07.635Z,51.60
2022-12-18T06:41:53.947Z,54.95
2022-12-18T06:44:40.049Z,47.60
2022-12-18T06:47:26.459Z,46.73
2022-12-18T06:50:13.592Z,45.15
2022-12-18T06:53:00.750Z,52.75
2022-12-18T06:55:46.794Z,61.53
2022-12-18T06:58:32.516Z,51.95
2022-12-18T07:01:18.820Z,49.33
2022-12-18T07:04:05.081Z,41.15
2022-12-18T07:06:51.629Z,55.05
2022-12-18T07:09:37.545Z,49.08
2022-12-18T07:12:23.866Z,47.05
2022-12-18T07:15:10.672Z,41.45
2022-12-18T07:17:56.596Z,39.92
2022-12-18T07:20:41.949Z,48.58
2022-12-18T07:23:27.942Z,41.47
2022-12-18T07:26:15.257Z,34.33
2022-12-18T07:29:01.694Z,36.85
2022-12-18T07:31:47.322Z,38.92
2022-12-18T07:34:33.596Z,41.13
2022-12-18T07:37:19.560Z,35.70
2022-12-18T07:40:06.195Z,47.92
2022-12-18T07:42:51.934Z,35.70
2022-12-18T07:45:38.068Z,39.15
2022-12-18T07:48:24.208Z,38.22
2022-12-18T07:51:14.793Z,34.35
2022-12-18T07:54:00.955Z,22.35
2022-12-18T07:56:46.829Z,20.60
2022-12-18T07:59:32.608Z,21.38
2022-12-18T08:02:19.014Z,28.70
2022-12-18T08:05:05.772Z,26.30
2022-12-18T08:07:53.460Z,26.52
2022-12-18T08:10:40.454Z,24.30
2022-12-18T08:13:26.878Z,25.17
2022-12-18T08:16:12.869Z,27.70
2022-12-18T08:18:58.926Z,28.17
2022-12-18T08:21:44.892Z,27.90
2022-12-18T08:24:30.684Z,28.85
2022-12-18T08:27:31.975Z,27.38
2022-12-18T08:30:18.845Z,30.05
2022-12-18T08:33:05.740Z,28.17
2022-12-18T08:35:51.957Z,36.10
2022-12-18T08:38:38.406Z,31.20
2022-12-18T08:41:24.531Z,37.20
2022-12-18T08:44:29.239Z,41.20
2022-12-18T08:47:15.355Z,36.25
2022-12-18T08:50:01.125Z,30.73
2022-12-18T08:52:47.275Z,28.90
2022-12-18T08:55:33.739Z,27.20
2022-12-18T08:58:19.766Z,26.88
2022-12-18T09:01:09.976Z,30.60
2022-12-18T09:03:56.355Z,26.08
2022-12-18T09:06:42.391Z,34.45
2022-12-18T09:09:28.494Z,31.90
2022-12-18T09:12:14.684Z,29.13
2022-12-18T09:15:00.562Z,30.52
2022-12-18T09:17:46.832Z,33.75
2022-12-18T09:20:32.976Z,32.20
2022-12-18T09:23:19.880Z,29.65
2022-12-18T09:26:06.058Z,27.90
2022-12-18T09:28:52.993Z,28.02
2022-12-18T09:31:40.638Z,32.67
2022-12-18T09:34:26.776Z,33.83
2022-12-18T09:37:13.031Z,26.83
2022-12-18T09:39:59.147Z,31.70
2022-12-18T09:42:49.992Z,23.58
2022-12-18T09:45:45.776Z,29.17
2022-12-18T09:48:42.990Z,23.25
2022-12-18T09:51:35.017Z,24.63
2022-12-18T09:54:31.552Z,27.77
2022-12-18T09:57:21.579Z,28.80
2022-12-18T10:00:19.440Z,25.42
2022-12-18T10:03:13.897Z,26.25
2022-12-18T10:06:20.234Z,27.35
2022-12-18T10:09:47.220Z,26.58
2022-12-18T10:12:39.105Z,32.55
2022-12-18T10:15:36.934Z,26.02
2022-12-18T10:18:31.396Z,28.48
2022-12-18T10:21:30.051Z,30.85
2022-12-18T10:24:46.256Z,32.78
2022-12-18T10:27:32.863Z,31.67
2022-12-18T10:30:22.236Z,32.90
2022-12-18T10:33:13.167Z,34.00
2022-12-18T10:35:59.482Z,32.45
2022-12-18T10:38:45.259Z,30.77
2022-12-18T10:41:33.300Z,46.10
2022-12-18T10:44:21.242Z,30.20
2022-12-18T10:47:15.560Z,28.05
2022-12-18T10:50:01.020Z,28.13
2022-12-18T10:52:58.169Z,25.33
2022-12-18T10:55:47.407Z,27.42
2022-12-18T10:58:35.762Z,28.05
2022-12-18T11:01:21.735Z,27.05
2022-12-18T11:04:10.681Z,26.75
2022-12-18T11:07:09.022Z,26.85
2022-12-18T11:10:03.396Z,25.95
2022-12-18T11:12:50.098Z,28.73
2022-12-18T11:15:35.853Z,26.90
2022-12-18T11:22:27.233Z,26.63
2022-12-18T11:28:31.115Z,26.27
2022-12-18T11:31:28.486Z,25.27
2022-12-18T11:34:32.604Z,27.88
2022-12-18T11:37:21.724Z,22.33
2022-12-18T11:40:23.502Z,25.73
2022-12-18T11:43:22.702Z,23.85
2022-12-18T11:46:35.999Z,26.20
2022-12-18T11:49:37.729Z,24.00
2022-12-18T11:52:40.390Z,27.52
2022-12-18T11:56:05.888Z,44.45
2022-12-18T11:58:56.593Z,35.13
2022-12-18T12:01:58.805Z,24.23
2022-12-18T12:04:49.428Z,23.85
2022-12-18T12:07:48.067Z,24.27
2022-12-18T12:11:04.941Z,32.92
2022-12-18T12:14:20.640Z,30.02
2022-12-18T12:17:15.867Z,23.90
2022-12-18T12:20:22.867Z,26.73
2022-12-18T12:23:34.676Z,21.85
2022-12-18T12:26:48.457Z,19.88
2022-12-18T12:30:08.679Z,21.58
2022-12-18T12:33:19.605Z,20.92
2022-12-18T12:36:40.107Z,20.88
2022-12-18T12:39:35.615Z,22.65
2022-12-18T12:42:49.444Z,22.20
2022-12-18T12:46:02.238Z,20.85
2022-12-18T12:48:54.417Z,21.73
2022-12-18T12:51:44.104Z,21.92
2022-12-18T12:54:32.767Z,21.17
2022-12-18T12:57:43.916Z,21.58
2022-12-18T13:00:56.470Z,21.40
2022-12-18T13:04:04.427Z,21.70
2022-12-18T13:07:07.471Z,21.17
2022-12-18T13:10:13.216Z,21.67
2022-12-18T13:13:04.918Z,20.00
2022-12-18T13:16:06.938Z,19.20
2022-12-18T13:18:57.770Z,19.38
2022-12-18T13:21:43.525Z,19.50
2022-12-18T13:24:33.322Z,21.42
2022-12-18T13:27:52.283Z,21.30
2022-12-18T13:30:47.718Z,20.67
2022-12-18T13:34:16.943Z,19.70
2022-12-18T13:36:55.352Z,22.00
2022-12-18T13:39:41.868Z,22.63
2022-12-18T13:42:59.365Z,22.23
2022-12-18T13:45:47.448Z,25.27
2022-12-18T13:48:39.334Z,23.05
2022-12-18T13:51:27.598Z,24.52
2022-12-18T13:54:34.679Z,28.52
2022-12-18T13:57:41.782Z,26.00
2022-12-18T14:00:30.423Z,26.33
2022-12-18T14:03:28.972Z,24.25
2022-12-18T14:06:15.658Z,23.95
2022-12-18T14:09:04.437Z,26.55
2022-12-18T14:11:51.580Z,24.20
2022-12-18T14:14:38.410Z,23.23
2022-12-18T14:17:24.882Z,21.10
2022-12-18T14:20:16.650Z,22.17
2022-12-18T14:23:02.587Z,24.52
2022-12-18T14:25:48.788Z,23.42
2022-12-18T14:28:45.459Z,24.05
2022-12-18T14:31:32.873Z,24.90
2022-12-18T14:34:20.237Z,24.10
2022-12-18T14:37:05.953Z,25.00
2022-12-18T14:40:10.445Z,23.80
2022-12-18T14:42:57.447Z,27.53
2022-12-18T14:45:47.526Z,32.13
2022-12-18T14:48:42.673Z,34.90
2022-12-18T14:51:32.156Z,31.38
2022-12-18T14:54:20.821Z,32.47
2022-12-18T14:57:43.237Z,30.40
2022-12-18T15:00:29.715Z,26.75
2022-12-18T15:03:21.827Z,27.52
2022-12-18T15:06:26.628Z,27.13
2022-12-18T15:09:26.523Z,26.05
2022-12-18T15:12:41.290Z,26.35
2022-12-18T15:15:40.521Z,25.17
2022-12-18T15:18:41.864Z,26.20
2022-12-18T15:21:31.650Z,25.95
2022-12-18T15:24:21.283Z,25.35
2022-12-18T15:27:26.651Z,25.40
2022-12-18T15:30:19.873Z,24.88
2022-12-18T15:33:28.110Z,25.35
2022-12-18T15:36:16.927Z,28.42
2022-12-18T15:39:07.692Z,26.98
2022-12-18T15:42:12.213Z,25.60
2022-12-18T15:44:58.674Z,25.98
2022-12-18T15:47:45.308Z,26.98
2022-12-18T15:50:31.456Z,27.45
2022-12-18T15:53:17.375Z,25.27
2022-12-18T15:56:22.508Z,25.50
2022-12-18T15:59:17.560Z,26.75
2022-12-18T16:02:03.440Z,26.92
2022-12-18T16:04:52.974Z,25.33
2022-12-18T16:07:39.507Z,30.13
2022-12-18T16:10:27.673Z,25.70
2022-12-18T16:13:19.728Z,25.38
2022-12-18T16:16:05.722Z,25.52
2022-12-18T16:18:52.207Z,24.73
2022-12-18T16:21:39.060Z,24.30
2022-12-18T16:24:31.193Z,27.73
2022-12-18T16:27:18.371Z,24.55
2022-12-18T16:30:04.652Z,27.50
2022-12-18T16:32:51.020Z,26.80
2022-12-18T16:35:38.247Z,24.58
2022-12-18T16:38:24.688Z,24.58
2022-12-18T16:41:32.054Z,24.80
2022-12-18T16:44:18.513Z,25.85
2022-12-18T16:47:04.541Z,27.65
2022-12-18T16:49:53.294Z,26.65
2022-12-18T16:52:39.495Z,24.35
2022-12-18T16:55:25.837Z,26.80
2022-12-18T16:58:11.753Z,25.50
2022-12-18T17:00:57.312Z,29.23
2022-12-18T17:03:44.324Z,27.65
2022-12-18T17:06:36.068Z,26.13
2022-12-18T17:09:25.553Z,28.25
2022-12-18T17:12:11.433Z,29.95
2022-12-18T17:14:57.298Z,26.95
2022-12-18T17:17:45.168Z,27.52
2022-12-18T17:20:31.633Z,28.92
2022-12-18T17:23:17.078Z,26.58
2022-12-18T17:26:04.614Z,28.38
2022-12-18T17:28:50.241Z,27.75
2022-12-18T17:31:35.927Z,31.30
2022-12-18T17:34:22.015Z,31.30
2022-12-18T17:37:08.187Z,29.85
2022-12-18T17:39:56.889Z,29.23
2022-12-18T17:42:43.116Z,27.40
2022-12-18T17:45:29.094Z,28.58
2022-12-18T17:48:15.134Z,29.60
2022-12-18T17:51:03.129Z,28.60
2022-12-18T17:53:49.485Z,27.53
2022-12-18T17:56:35.752Z,28.60
2022-12-18T17:59:21.472Z,26.80
2022-12-18T18:02:07.736Z,30.27
2022-12-18T18:04:54.877Z,29.88
2022-12-18T18:07:41.597Z,36.55
2022-12-18T18:10:27.328Z,33.88
2022-12-18T18:13:44.909Z,33.63
2022-12-18T18:16:36.593Z,35.55
2022-12-18T18:19:24.697Z,33.87
2022-12-18T18:22:10.772Z,54.35
2022-12-18T18:24:56.576Z,60.00
2022-12-18T18:27:42.844Z,35.25
2022-12-18T18:30:32.779Z,35.08
2022-12-18T18:33:18.882Z,34.10
2022-12-18T18:36:05.097Z,30.67
2022-12-18T18:38:51.659Z,37.67
2022-12-18T18:41:39.332Z,41.72
2022-12-18T18:44:26.569Z,37.22
2022-12-18T18:47:14.822Z,33.55
2022-12-18T18:50:00.876Z,36.63
2022-12-18T18:52:46.925Z,38.47
2022-12-18T18:55:34.578Z,34.85
2022-12-18T18:58:21.016Z,32.92
2022-12-18T19:01:16.303Z,34.75
2022-12-18T19:04:02.752Z,34.08
2022-12-18T19:06:49.300Z,33.03
2022-12-18T19:09:36.398Z,34.33
2022-12-18T19:12:40.860Z,29.42
2022-12-18T19:15:26.870Z,82.75
2022-12-18T19:18:12.671Z,36.70
2022-12-18T19:21:04.979Z,36.08
2022-12-18T19:23:52.104Z,32.90
2022-12-18T19:26:38.808Z,33.47
2022-12-18T19:29:25.317Z,33.38
2022-12-18T19:32:11.803Z,35.05
2022-12-18T19:34:59.203Z,37.60
2022-12-18T19:37:45.704Z,39.27
2022-12-18T19:40:31.532Z,42.30
2022-12-18T19:43:18.132Z,37.40
2022-12-18T19:46:06.433Z,35.85
2022-12-18T19:48:52.845Z,31.35
2022-12-18T19:51:39.635Z,34.53
2022-12-18T19:54:25.988Z,32.88
2022-12-18T19:57:13.233Z,32.80
2022-12-18T19:59:59.379Z,32.60
2022-12-18T20:02:45.701Z,34.63
2022-12-18T20:05:31.360Z,36.13
2022-12-18T20:08:17.332Z,32.60
2022-12-18T20:11:03.887Z,32.47
2022-12-18T20:13:50.174Z,32.77
2022-12-18T20:16:36.418Z,34.33
2022-12-18T20:19:22.944Z,44.42
2022-12-18T20:22:09.888Z,44.97
2022-12-18T20:24:56.048Z,40.72
2022-12-18T20:27:41.981Z,37.28
2022-12-18T20:30:28.329Z,38.30
2022-12-18T20:33:15.574Z,36.78
2022-12-18T20:36:07.471Z,38.78
2022-12-18T20:38:58.180Z,37.60
2022-12-18T20:41:47.128Z,38.97
2022-12-18T20:44:33.409Z,35.15
2022-12-18T20:47:20.408Z,33.03
2022-12-18T20:50:08.376Z,35.60
2022-12-18T20:52:55.076Z,37.22
2022-12-18T20:55:44.731Z,36.65
2022-12-18T20:58:31.258Z,36.70
2022-12-18T21:01:20.470Z,36.40
2022-12-18T21:04:06.569Z,35.13
2022-12-18T21:07:00.447Z,35.50
2022-12-18T21:09:48.271Z,40.22
2022-12-18T21:12:48.211Z,41.30
2022-12-18T21:15:42.592Z,38.72
2022-12-18T21:18:28.644Z,37.90
2022-12-18T21:21:14.764Z,39.05
2022-12-18T21:24:00.816Z,38.75
2022-12-18T21:26:48.498Z,39.90
2022-12-18T21:29:34.919Z,39.97
2022-12-18T21:32:20.998Z,41.60
2022-12-18T21:35:08.016Z,40.42
2022-12-18T21:37:53.570Z,38.65
2022-12-18T21:40:40.245Z,40.00
2022-12-18T21:43:45.516Z,39.33
2022-12-18T21:46:30.968Z,34.85
2022-12-18T21:49:22.389Z,36.25
2022-12-18T21:52:08.599Z,36.90
2022-12-18T21:54:54.569Z,39.20
2022-12-18T21:57:40.811Z,37.70
2022-12-18T22:00:26.549Z,38.30
2022-12-18T22:03:18.155Z,37.72
2022-12-18T22:06:09.201Z,37.90
2022-12-18T22:08:56.049Z,38.17
2022-12-18T22:11:42.706Z,39.83
2022-12-18T22:14:29.199Z,44.35
2022-12-18T22:17:15.782Z,40.83
2022-12-18T22:20:02.093Z,41.13
2022-12-18T22:22:51.699Z,38.95
2022-12-18T22:25:39.721Z,42.53
2022-12-18T22:28:44.655Z,41.20
2022-12-18T22:31:31.386Z,42.38
2022-12-18T22:34:22.652Z,43.35
2022-12-18T22:37:13.896Z,44.15
2022-12-18T22:40:02.833Z,42.38
2022-12-18T22:42:48.960Z,45.17
2022-12-18T22:45:38.371Z,42.45
2022-12-18T22:48:25.029Z,41.03
2022-12-18T22:51:16.351Z,41.95
2022-12-18T22:54:02.813Z,41.95
2022-12-18T22:56:49.291Z,41.97
2022-12-18T22:59:35.534Z,40.83
2022-12-18T23:02:21.682Z,44.10
2022-12-18T23:05:07.671Z,42.65
2022-12-18T23:07:53.720Z,42.47
2022-12-18T23:10:39.892Z,42.97
2022-12-18T23:13:28.259Z,43.05
2022-12-18T23:16:16.968Z,43.77
2022-12-18T23:19:04.105Z,45.88
2022-12-18T23:21:49.824Z,44.60
2022-12-18T23:24:35.651Z,44.87
2022-12-18T23:27:21.777Z,42.92
2022-12-18T23:30:09.490Z,42.13
2022-12-18T23:32:55.924Z,38.22
2022-12-18T23:35:41.713Z,41.90
2022-12-18T23:38:29.004Z,39.33
2022-12-18T23:41:17.084Z,38.63
2022-12-18T23:44:03.778Z,40.78
2022-12-18T23:46:49.600Z,37.35
2022-12-18T23:49:35.645Z,40.03
2022-12-18T23:52:23.587Z,37.85
2022-12-18T23:55:10.036Z,40.00
2022-12-18T23:57:56.504Z,39.95
